createdAt,value
2022-10-10T00:02:58.890Z,9.90
2022-10-10T00:07:07.526Z,9.80
2022-10-10T00:11:18.918Z,9.80
2022-10-10T00:15:27.748Z,9.80
2022-10-10T00:19:36.305Z,9.80
2022-10-10T00:23:44.864Z,9.80
2022-10-10T00:27:54.387Z,9.80
2022-10-10T00:32:22.292Z,9.80
2022-10-10T00:36:30.935Z,9.70
2022-10-10T00:40:51.655Z,9.70
2022-10-10T00:45:29.192Z,9.70
2022-10-10T00:49:57.165Z,9.70
2022-10-10T00:54:08.853Z,9.70
2022-10-10T00:58:19.446Z,9.70
2022-10-10T01:02:29.138Z,9.70
2022-10-10T01:06:37.670Z,9.60
2022-10-10T01:11:17.338Z,9.60
2022-10-10T01:15:35.030Z,9.60
2022-10-10T01:20:01.615Z,9.60
2022-10-10T01:24:25.592Z,9.70
2022-10-10T01:33:39.753Z,9.70
2022-10-10T01:38:08.196Z,9.70
2022-10-10T01:42:28.709Z,9.70
2022-10-10T01:46:37.350Z,9.70
2022-10-10T01:51:13.080Z,9.70
2022-10-10T01:55:27.662Z,9.70
2022-10-10T01:59:48.587Z,9.60
2022-10-10T02:04:20.869Z,9.60
2022-10-10T02:08:57.505Z,9.70
2022-10-10T02:13:07.020Z,9.70
2022-10-10T02:17:17.049Z,9.70
2022-10-10T02:21:26.640Z,9.70
2022-10-10T02:25:38.370Z,9.70
2022-10-10T02:29:48.387Z,9.70
2022-10-10T02:34:00.591Z,9.70
2022-10-10T02:38:12.278Z,9.70
2022-10-10T02:42:23.278Z,9.70
2022-10-10T02:46:32.240Z,9.70
2022-10-10T02:50:40.886Z,9.70
2022-10-10T02:54:49.455Z,9.60
2022-10-10T02:58:58.027Z,9.60
2022-10-10T03:03:06.597Z,9.70
2022-10-10T03:07:15.180Z,9.70
2022-10-10T03:11:25.685Z,9.70
2022-10-10T03:15:34.264Z,9.70
2022-10-10T03:19:42.955Z,9.60
2022-10-10T03:23:51.690Z,9.70
2022-10-10T03:28:00.259Z,9.60
2022-10-10T03:32:11.007Z,9.70
2022-10-10T03:36:19.142Z,9.70
2022-10-10T03:40:28.649Z,9.70
2022-10-10T03:44:37.235Z,9.70
2022-10-10T03:48:45.811Z,9.70
2022-10-10T03:52:54.390Z,9.70
2022-10-10T03:57:02.965Z,9.70
2022-10-10T04:01:11.747Z,9.70
2022-10-10T04:05:20.545Z,9.70
2022-10-10T04:09:29.130Z,9.60
2022-10-10T04:13:37.674Z,9.60
2022-10-10T04:17:46.264Z,9.60
2022-10-10T04:21:54.842Z,9.60
2022-10-10T04:26:03.386Z,9.60
2022-10-10T04:30:12.738Z,9.60
2022-10-10T04:34:21.287Z,9.60
2022-10-10T04:38:30.350Z,9.60
2022-10-10T04:42:39.055Z,9.60
2022-10-10T04:46:47.635Z,9.60
2022-10-10T04:50:58.893Z,9.50
2022-10-10T04:55:07.600Z,9.50
2022-10-10T04:59:16.173Z,9.50
2022-10-10T05:03:25.970Z,9.50
2022-10-10T05:07:34.534Z,9.50
2022-10-10T05:11:43.091Z,9.50
2022-10-10T05:16:00.143Z,9.50
2022-10-10T05:20:08.943Z,9.40
2022-10-10T05:24:17.578Z,9.50
2022-10-10T05:28:26.465Z,9.40
2022-10-10T05:32:35.356Z,9.40
2022-10-10T05:36:44.256Z,9.40
2022-10-10T05:40:54.348Z,9.30
2022-10-10T05:45:02.982Z,9.30
2022-10-10T05:49:11.566Z,9.30
2022-10-10T05:53:20.252Z,9.30
2022-10-10T05:57:28.830Z,9.20
2022-10-10T06:01:38.041Z,9.30
2022-10-10T06:05:58.976Z,9.30
2022-10-10T06:10:08.701Z,9.20
2022-10-10T06:14:17.289Z,9.20
2022-10-10T06:18:25.920Z,9.20
2022-10-10T06:22:34.514Z,9.20
2022-10-10T06:26:43.093Z,9.20
2022-10-10T06:30:52.196Z,9.30
2022-10-10T06:35:00.782Z,9.30
2022-10-10T06:39:09.578Z,9.30
2022-10-10T06:43:19.024Z,9.30
2022-10-10T06:47:29.050Z,9.30
2022-10-10T06:51:38.684Z,9.30
2022-10-10T07:00:23.010Z,9.50
2022-10-10T07:04:31.659Z,9.50
2022-10-10T07:08:41.428Z,9.60
2022-10-10T07:12:50.030Z,9.70
2022-10-10T07:16:58.591Z,9.80
2022-10-10T07:21:07.242Z,9.80
2022-10-10T07:25:15.901Z,9.90
2022-10-10T07:29:25.328Z,9.90
2022-10-10T07:33:37.313Z,10.00
2022-10-10T07:37:47.604Z,10.10
2022-10-10T07:41:56.235Z,10.10
2022-10-10T07:46:19.244Z,10.10
2022-10-10T07:50:33.577Z,10.30
2022-10-10T07:54:54.468Z,10.30
2022-10-10T07:59:12.195Z,10.30
2022-10-10T08:03:30.289Z,10.40
2022-10-10T08:07:47.596Z,10.50
2022-10-10T08:11:56.323Z,10.60
2022-10-10T08:16:06.073Z,10.80
2022-10-10T08:20:25.059Z,10.90
2022-10-10T08:24:59.148Z,11.10
2022-10-10T08:29:12.532Z,11.20
2022-10-10T08:33:33.904Z,11.40
2022-10-10T08:37:45.407Z,11.50
2022-10-10T08:41:57.039Z,11.70
2022-10-10T08:46:11.608Z,11.90
2022-10-10T08:50:35.009Z,12.00
2022-10-10T08:54:45.608Z,12.20
2022-10-10T08:58:57.250Z,12.40
2022-10-10T09:03:08.856Z,12.60
2022-10-10T09:16:03.929Z,13.20
2022-10-10T09:20:26.733Z,13.30
2022-10-10T09:24:42.601Z,13.40
2022-10-10T09:29:06.621Z,13.40
2022-10-10T09:33:35.969Z,13.50
2022-10-10T09:37:47.672Z,13.70
2022-10-10T09:42:02.446Z,13.90
2022-10-10T09:46:11.410Z,14.10
2022-10-10T09:50:20.185Z,14.40
2022-10-10T09:54:30.300Z,14.60
2022-10-10T09:58:48.073Z,14.80
2022-10-10T10:03:08.532Z,15.00
2022-10-10T10:07:32.022Z,15.20
2022-10-10T10:11:41.374Z,15.40
2022-10-10T10:15:55.993Z,15.70
2022-10-10T10:20:10.060Z,15.90
2022-10-10T10:24:24.338Z,16.00
2022-10-10T10:28:34.540Z,15.90
2022-10-10T10:32:52.100Z,15.80
2022-10-10T10:37:23.418Z,15.80
2022-10-10T10:46:06.664Z,16.20
2022-10-10T10:50:33.085Z,16.40
2022-10-10T10:54:53.661Z,16.40
2022-10-10T11:00:20.258Z,16.50
2022-10-10T11:05:20.536Z,16.50
2022-10-10T11:08:12.966Z,16.60
2022-10-10T11:12:33.624Z,16.70
2022-10-10T11:17:09.009Z,16.80
2022-10-10T11:21:20.545Z,17.00
2022-10-10T11:25:43.619Z,17.10
2022-10-10T11:30:17.993Z,17.10
2022-10-10T11:34:29.630Z,17.10
2022-10-10T11:38:46.779Z,17.10
2022-10-10T11:42:58.362Z,17.00
2022-10-10T11:47:26.628Z,17.10
2022-10-10T11:51:38.934Z,17.10
2022-10-10T11:55:59.683Z,17.10
2022-10-10T12:00:16.750Z,17.20
2022-10-10T12:04:25.438Z,17.30
2022-10-10T12:08:40.574Z,17.50
2022-10-10T12:12:53.430Z,17.50
2022-10-10T12:17:02.015Z,17.40
2022-10-10T12:21:31.058Z,17.30
2022-10-10T12:25:42.619Z,17.30
2022-10-10T12:29:59.887Z,17.30
2022-10-10T12:34:14.283Z,17.30
2022-10-10T12:38:44.462Z,17.40
2022-10-10T12:42:58.609Z,17.50
2022-10-10T12:47:20.769Z,17.60
2022-10-10T12:51:32.222Z,17.90
2022-10-10T12:55:49.202Z,18.10
2022-10-10T13:00:01.898Z,18.20
2022-10-10T13:04:08.730Z,18.20
2022-10-10T13:08:20.502Z,18.00
2022-10-10T13:12:32.262Z,18.20
2022-10-10T13:16:43.905Z,18.40
2022-10-10T13:20:54.060Z,18.50
2022-10-10T13:25:04.414Z,18.30
2022-10-10T13:29:21.945Z,18.20
2022-10-10T13:33:33.645Z,18.10
2022-10-10T13:37:43.784Z,18.00
2022-10-10T13:41:53.392Z,17.90
2022-10-10T13:46:04.303Z,17.90
2022-10-10T13:50:33.705Z,17.90
2022-10-10T13:54:47.221Z,18.00
2022-10-10T13:58:58.859Z,18.00
2022-10-10T14:03:19.352Z,18.20
2022-10-10T14:07:30.499Z,18.20
2022-10-10T14:11:40.686Z,18.30
2022-10-10T14:15:49.782Z,18.20
2022-10-10T14:19:58.749Z,18.20
2022-10-10T14:24:08.625Z,18.20
2022-10-10T14:28:21.995Z,18.10
2022-10-10T14:32:31.715Z,18.00
2022-10-10T14:36:52.262Z,18.00
2022-10-10T14:41:02.018Z,18.00
2022-10-10T14:45:16.450Z,17.80
2022-10-10T14:49:26.070Z,17.70
2022-10-10T14:53:34.648Z,17.60
2022-10-10T14:57:46.370Z,17.50
2022-10-10T15:01:54.925Z,17.40
2022-10-10T15:06:03.775Z,17.40
2022-10-10T15:14:24.897Z,17.20
2022-10-10T15:18:53.813Z,17.20
2022-10-10T15:22:45.908Z,17.10
2022-10-10T15:26:54.482Z,17.20
2022-10-10T15:31:03.493Z,17.30
2022-10-10T15:35:15.004Z,17.20
2022-10-10T15:39:23.717Z,17.10
2022-10-10T15:43:33.147Z,17.10
2022-10-10T15:47:46.568Z,17.10
2022-10-10T15:51:53.500Z,16.90
2022-10-10T15:56:05.547Z,16.90
2022-10-10T16:00:13.659Z,16.80
2022-10-10T16:04:23.500Z,16.60
2022-10-10T16:08:32.105Z,16.30
2022-10-10T16:12:40.637Z,15.90
2022-10-10T16:16:49.180Z,15.70
2022-10-10T16:20:58.491Z,15.50
2022-10-10T16:25:21.957Z,15.40
2022-10-10T16:29:18.797Z,15.30
2022-10-10T16:33:27.368Z,15.30
2022-10-10T16:37:36.162Z,15.20
2022-10-10T16:41:49.018Z,15.20
2022-10-10T16:45:55.210Z,15.10
2022-10-10T16:50:05.244Z,15.00
2022-10-10T16:54:13.794Z,14.80
2022-10-10T16:58:23.033Z,14.50
2022-10-10T17:02:31.601Z,14.30
2022-10-10T17:06:40.170Z,14.10
2022-10-10T17:10:48.743Z,14.00
2022-10-10T17:14:57.315Z,13.90
2022-10-10T17:19:05.976Z,13.80
2022-10-10T17:23:15.687Z,13.80
2022-10-10T17:27:24.975Z,13.70
2022-10-10T17:31:33.708Z,13.70
2022-10-10T17:35:43.944Z,13.70
2022-10-10T17:39:53.610Z,13.70
2022-10-10T17:44:02.229Z,13.70
2022-10-10T17:48:10.783Z,13.70
2022-10-10T17:52:21.390Z,13.70
2022-10-10T17:56:30.452Z,13.70
2022-10-10T18:00:41.543Z,13.70
2022-10-10T18:04:50.133Z,13.70
2022-10-10T18:08:59.447Z,13.70
2022-10-10T18:13:08.418Z,13.70
2022-10-10T18:17:16.955Z,13.70
2022-10-10T18:21:25.619Z,13.70
2022-10-10T18:25:34.197Z,13.60
2022-10-10T18:29:42.778Z,13.60
2022-10-10T18:33:51.690Z,13.50
2022-10-10T18:38:00.253Z,13.40
2022-10-10T18:42:08.987Z,13.30
2022-10-10T18:46:20.663Z,13.30
2022-10-10T18:50:30.021Z,13.20
2022-10-10T18:54:38.584Z,13.10
2022-10-10T18:58:47.701Z,13.00
2022-10-10T19:02:57.311Z,13.00
2022-10-10T19:07:06.356Z,12.90
2022-10-10T19:11:27.071Z,12.90
2022-10-10T19:15:35.654Z,12.90
2022-10-10T19:19:44.287Z,13.00
2022-10-10T19:23:52.861Z,12.90
2022-10-10T19:28:01.426Z,12.90
2022-10-10T19:32:10.659Z,12.80
2022-10-10T19:36:19.209Z,12.70
2022-10-10T19:40:27.785Z,12.70
2022-10-10T19:44:55.680Z,12.60
2022-10-10T19:49:04.344Z,12.50
2022-10-10T19:53:14.504Z,12.40
2022-10-10T19:57:23.054Z,12.40
2022-10-10T20:01:32.249Z,12.30
2022-10-10T20:05:43.504Z,12.20
2022-10-10T20:09:52.066Z,12.20
2022-10-10T20:14:01.811Z,12.00
2022-10-10T20:18:10.435Z,12.00
2022-10-10T20:22:18.955Z,11.90
2022-10-10T20:26:28.376Z,11.80
2022-10-10T20:30:42.587Z,11.70
2022-10-10T20:34:51.137Z,11.60
2022-10-10T20:39:02.857Z,11.60
2022-10-10T20:43:12.224Z,11.50
2022-10-10T20:47:20.797Z,11.40
2022-10-10T20:51:29.740Z,11.40
2022-10-10T20:55:38.291Z,11.40
2022-10-10T20:59:47.069Z,11.30
2022-10-10T21:03:55.703Z,11.30
2022-10-10T21:08:04.269Z,11.20
2022-10-10T21:12:12.830Z,11.10
2022-10-10T21:16:22.509Z,11.00
2022-10-10T21:20:31.025Z,11.00
2022-10-10T21:24:39.673Z,11.00
2022-10-10T21:28:50.570Z,10.90
2022-10-10T21:32:59.176Z,10.80
2022-10-10T21:37:07.763Z,10.80
2022-10-10T21:41:19.423Z,10.80
2022-10-10T21:45:28.163Z,10.70
2022-10-10T21:49:56.164Z,10.60
2022-10-10T21:54:04.785Z,10.60
2022-10-10T21:58:13.379Z,10.60
2022-10-10T22:02:21.958Z,10.50
2022-10-10T22:06:31.360Z,10.50
2022-10-10T22:10:41.783Z,10.40
2022-10-10T22:14:50.426Z,10.40
2022-10-10T22:18:59.937Z,10.30
2022-10-10T22:23:08.547Z,10.30
2022-10-10T22:27:17.130Z,10.20
2022-10-10T22:31:26.100Z,10.20
2022-10-10T22:35:35.390Z,10.10
2022-10-10T22:39:45.787Z,10.00
2022-10-10T22:43:54.376Z,10.00
2022-10-10T22:48:02.973Z,9.90
2022-10-10T22:52:11.590Z,9.90
2022-10-10T22:56:21.587Z,9.80
2022-10-10T23:00:30.207Z,9.80
2022-10-10T23:04:38.830Z,9.70
2022-10-10T23:08:47.404Z,9.70
2022-10-10T23:13:15.274Z,9.70
2022-10-10T23:17:23.954Z,9.60
2022-10-10T23:21:32.523Z,9.50
2022-10-10T23:25:45.932Z,9.50
2022-10-10T23:29:54.558Z,9.50
2022-10-10T23:34:03.204Z,9.40
2022-10-10T23:38:11.839Z,9.40
2022-10-10T23:42:21.316Z,9.30
2022-10-10T23:46:30.388Z,9.30
2022-10-10T23:50:39.054Z,9.20
2022-10-10T23:54:47.680Z,9.20
2022-10-10T23:58:56.262Z,9.20
